createdAt,value
2018-07-19T00:01:32.977Z,54.71
2018-07-19T00:04:57.689Z,55.61
2018-07-19T00:08:22.452Z,55.09
2018-07-19T00:11:47.109Z,56.36
2018-07-19T00:15:11.731Z,56.69
2018-07-19T00:18:36.360Z,55.84
2018-07-19T00:22:00.991Z,57.37
2018-07-19T00:25:25.685Z,58.08
2018-07-19T00:28:50.339Z,58.07
2018-07-19T00:32:15.070Z,59.27
2018-07-19T00:35:39.754Z,58.54
2018-07-19T00:39:06.103Z,58.17
2018-07-19T00:42:30.780Z,57.74
2018-07-19T00:45:55.390Z,58.47
2018-07-19T00:49:20.121Z,58.23
2018-07-19T00:52:44.766Z,58.64
2018-07-19T00:56:09.478Z,58.30
2018-07-19T00:59:33.805Z,58.01
2018-07-19T01:02:58.443Z,58.82
2018-07-19T01:06:23.111Z,59.38
2018-07-19T01:09:47.864Z,56.71
2018-07-19T01:13:12.537Z,57.74
2018-07-19T01:16:37.155Z,58.31
2018-07-19T01:20:01.505Z,57.00
2018-07-19T01:23:26.161Z,57.12
2018-07-19T01:26:50.937Z,57.55
2018-07-19T01:30:15.599Z,57.88
2018-07-19T01:33:40.225Z,57.87
2018-07-19T01:37:04.883Z,59.72
2018-07-19T01:40:29.485Z,60.12
2018-07-19T01:43:54.179Z,57.04
2018-07-19T01:47:18.875Z,58.11
2018-07-19T01:50:43.521Z,58.96
2018-07-19T01:54:08.190Z,60.48
2018-07-19T01:57:32.903Z,60.56
2018-07-19T02:00:57.572Z,59.55
2018-07-19T02:04:22.209Z,61.36
2018-07-19T02:07:46.880Z,61.09
2018-07-19T02:11:11.595Z,60.88
2018-07-19T02:14:36.274Z,61.28
2018-07-19T02:18:00.923Z,61.97
2018-07-19T02:21:25.570Z,61.49
2018-07-19T02:24:50.209Z,61.47
2018-07-19T02:28:14.821Z,61.21
2018-07-19T02:31:39.493Z,60.53
2018-07-19T02:35:04.194Z,61.08
2018-07-19T02:38:28.845Z,62.68
2018-07-19T02:41:53.513Z,62.48
2018-07-19T02:45:18.157Z,63.34
2018-07-19T02:48:42.787Z,62.99
2018-07-19T02:52:07.691Z,62.26
2018-07-19T02:55:32.324Z,61.77
2018-07-19T02:58:56.965Z,61.05
2018-07-19T03:02:21.611Z,60.42
2018-07-19T03:05:46.303Z,59.92
2018-07-19T03:09:10.606Z,60.33
2018-07-19T03:12:35.242Z,60.36
2018-07-19T03:15:59.903Z,60.38
2018-07-19T03:19:24.533Z,59.74
2018-07-19T03:22:49.195Z,61.07
2018-07-19T03:26:13.872Z,61.54
2018-07-19T03:29:38.581Z,60.62
2018-07-19T03:33:02.923Z,60.82
2018-07-19T03:36:27.592Z,61.13
2018-07-19T03:39:52.255Z,60.08
2018-07-19T03:43:16.936Z,59.72
2018-07-19T03:46:41.593Z,60.31
2018-07-19T03:50:06.685Z,60.26
2018-07-19T03:53:31.371Z,59.70
2018-07-19T03:56:56.110Z,59.83
2018-07-19T04:00:20.749Z,58.99
2018-07-19T04:03:45.433Z,59.72
2018-07-19T04:07:10.120Z,60.64
2018-07-19T04:10:34.849Z,58.94
2018-07-19T04:13:59.527Z,59.81
2018-07-19T04:17:24.201Z,57.20
2018-07-19T04:20:48.877Z,57.32
2018-07-19T04:24:13.763Z,57.27
2018-07-19T04:27:38.401Z,58.80
2018-07-19T04:31:03.134Z,56.42
2018-07-19T04:34:27.801Z,57.99
2018-07-19T04:37:52.451Z,57.27
2018-07-19T04:41:17.113Z,57.37
2018-07-19T04:44:41.823Z,57.35
2018-07-19T04:48:06.650Z,56.94
2018-07-19T04:51:31.403Z,56.93
2018-07-19T04:54:56.198Z,55.86
2018-07-19T04:58:20.565Z,55.99
2018-07-19T05:01:45.384Z,55.58
2018-07-19T05:05:09.686Z,56.08
2018-07-19T05:08:34.440Z,55.25
2018-07-19T05:11:59.095Z,56.25
2018-07-19T05:15:23.758Z,56.24
2018-07-19T05:18:48.452Z,56.38
2018-07-19T05:22:13.221Z,56.07
2018-07-19T05:25:38.885Z,54.89
2018-07-19T05:29:03.541Z,55.11
2018-07-19T05:32:28.177Z,55.38
2018-07-19T05:35:52.561Z,53.94
2018-07-19T05:39:17.628Z,54.94
2018-07-19T05:42:42.390Z,53.49
2018-07-19T05:46:07.279Z,53.16
2018-07-19T05:49:32.006Z,51.92
2018-07-19T05:52:56.722Z,52.50
2018-07-19T05:56:21.346Z,52.78
2018-07-19T05:59:46.030Z,51.26
2018-07-19T06:03:10.716Z,52.71
2018-07-19T06:06:35.388Z,51.75
2018-07-19T06:10:00.027Z,51.82
2018-07-19T06:13:24.652Z,51.32
2018-07-19T06:16:49.354Z,51.14
2018-07-19T06:20:14.050Z,50.60
2018-07-19T06:23:38.770Z,50.63
2018-07-19T06:27:03.479Z,50.20
2018-07-19T06:30:28.146Z,51.05
2018-07-19T06:33:52.821Z,51.09
2018-07-19T06:37:17.475Z,50.29
2018-07-19T06:40:42.169Z,50.15
2018-07-19T06:44:07.150Z,51.27
2018-07-19T06:47:31.820Z,50.24
2018-07-19T06:50:56.462Z,50.98
2018-07-19T06:54:21.196Z,49.96
2018-07-19T06:57:45.874Z,50.93
2018-07-19T07:01:10.570Z,50.05
2018-07-19T07:04:35.283Z,49.06
2018-07-19T07:07:59.938Z,48.49
2018-07-19T07:11:24.717Z,49.49
2018-07-19T07:14:50.174Z,48.96
2018-07-19T07:18:14.902Z,48.73
2018-07-19T07:21:39.597Z,47.98
2018-07-19T07:25:04.303Z,47.95
2018-07-19T07:28:28.982Z,47.61
2018-07-19T07:31:53.620Z,46.68
2018-07-19T07:35:18.497Z,47.41
2018-07-19T07:38:46.284Z,47.47
2018-07-19T07:42:10.944Z,47.28
2018-07-19T07:45:35.753Z,45.45
2018-07-19T07:49:00.415Z,45.91
2018-07-19T07:52:25.108Z,45.23
2018-07-19T07:55:49.911Z,45.32
2018-07-19T07:59:14.619Z,45.26
2018-07-19T08:02:39.341Z,44.39
2018-07-19T08:06:04.165Z,44.57
2018-07-19T08:09:28.971Z,44.08
2018-07-19T08:12:53.759Z,44.32
2018-07-19T08:16:18.575Z,44.52
2018-07-19T08:19:44.250Z,44.15
2018-07-19T08:23:09.290Z,43.66
2018-07-19T08:26:34.207Z,43.77
2018-07-19T08:29:58.858Z,43.30
2018-07-19T08:33:23.242Z,43.83
2018-07-19T08:36:48.738Z,42.85
2018-07-19T08:40:16.298Z,43.91
2018-07-19T08:43:41.393Z,43.20
2018-07-19T08:47:06.340Z,43.41
2018-07-19T08:50:34.742Z,42.87
2018-07-19T08:53:59.405Z,42.41
2018-07-19T08:57:24.174Z,42.96
2018-07-19T09:00:48.893Z,43.23
2018-07-19T09:04:13.629Z,42.17
2018-07-19T09:07:38.294Z,43.31
2018-07-19T09:11:02.920Z,42.50
2018-07-19T09:14:27.563Z,40.93
2018-07-19T09:17:52.249Z,40.59
2018-07-19T09:21:16.939Z,40.29
2018-07-19T09:24:41.637Z,41.81
2018-07-19T09:28:06.359Z,42.16
2018-07-19T09:31:31.160Z,40.27
2018-07-19T09:34:55.956Z,40.61
2018-07-19T09:38:21.184Z,39.38
2018-07-19T09:41:45.687Z,39.57
2018-07-19T09:45:10.318Z,39.77
2018-07-19T09:48:42.106Z,40.19
2018-07-19T09:52:07.834Z,38.88
2018-07-19T09:55:34.190Z,42.49
2018-07-19T09:58:59.566Z,39.26
2018-07-19T10:02:25.084Z,40.48
2018-07-19T10:05:51.546Z,40.67
2018-07-19T10:09:17.765Z,39.23
2018-07-19T10:12:44.991Z,40.89
2018-07-19T10:16:09.439Z,38.07
2018-07-19T10:19:33.719Z,38.01
2018-07-19T10:22:58.509Z,38.19
2018-07-19T10:26:23.126Z,38.02
2018-07-19T10:29:47.698Z,37.95
2018-07-19T10:33:16.418Z,37.17
2018-07-19T10:36:40.916Z,37.28
2018-07-19T10:40:05.856Z,35.88
2018-07-19T10:43:30.433Z,36.16
2018-07-19T10:46:55.042Z,35.46
2018-07-19T10:50:19.632Z,35.44
2018-07-19T10:53:44.214Z,36.52
2018-07-19T10:57:08.776Z,35.72
2018-07-19T11:00:33.536Z,37.22
2018-07-19T11:03:57.806Z,36.02
2018-07-19T11:07:23.097Z,36.27
2018-07-19T11:10:47.660Z,34.75
2018-07-19T11:14:12.280Z,34.03
2018-07-19T11:17:36.527Z,34.22
2018-07-19T11:21:01.304Z,34.57
2018-07-19T11:24:25.998Z,33.28
2018-07-19T11:27:50.602Z,33.67
2018-07-19T11:31:15.238Z,34.35
2018-07-19T11:34:39.577Z,33.57
2018-07-19T11:38:03.886Z,33.74
2018-07-19T11:41:28.920Z,36.81
2018-07-19T11:44:53.167Z,32.88
2018-07-19T11:48:17.764Z,32.85
2018-07-19T11:51:46.972Z,31.77
2018-07-19T11:55:12.028Z,31.34
2018-07-19T11:58:39.120Z,30.26
2018-07-19T12:02:04.329Z,30.82
2018-07-19T12:05:29.955Z,29.01
2018-07-19T12:08:55.466Z,30.11
2018-07-19T12:12:21.102Z,30.48
2018-07-19T12:15:46.628Z,29.10
2018-07-19T12:19:12.777Z,29.21
2018-07-19T12:22:38.030Z,29.39
2018-07-19T12:26:04.046Z,28.42
2018-07-19T12:29:28.693Z,29.36
2018-07-19T12:32:53.297Z,28.43
2018-07-19T12:36:17.979Z,28.09
2018-07-19T12:39:42.540Z,27.62
2018-07-19T12:43:07.203Z,27.45
2018-07-19T12:46:31.889Z,28.19
2018-07-19T12:49:56.512Z,27.52
2018-07-19T12:53:21.100Z,27.66
2018-07-19T12:56:45.837Z,31.65
2018-07-19T13:00:10.522Z,28.43
2018-07-19T13:03:35.124Z,26.42
2018-07-19T13:07:00.745Z,28.02
2018-07-19T13:10:25.025Z,27.78
2018-07-19T13:13:49.658Z,27.81
2018-07-19T13:17:14.405Z,28.20
2018-07-19T13:20:39.056Z,27.05
2018-07-19T13:24:03.714Z,27.06
2018-07-19T13:27:28.681Z,26.43
2018-07-19T13:30:53.363Z,26.44
2018-07-19T13:34:18.038Z,27.74
2018-07-19T13:37:42.641Z,26.89
2018-07-19T13:41:08.056Z,26.07
2018-07-19T13:44:32.725Z,29.24
2018-07-19T13:47:57.782Z,26.89
2018-07-19T13:51:22.131Z,26.71
2018-07-19T13:54:49.294Z,26.24
2018-07-19T13:58:13.944Z,26.64
2018-07-19T14:01:38.865Z,26.12
2018-07-19T14:05:03.511Z,26.39
2018-07-19T14:08:28.141Z,27.58
2018-07-19T14:11:52.703Z,27.24
2018-07-19T14:15:17.302Z,27.74
2018-07-19T14:18:41.887Z,26.56
2018-07-19T14:22:06.508Z,26.63
2018-07-19T14:25:31.117Z,25.78
2018-07-19T14:28:55.720Z,26.60
2018-07-19T14:32:20.312Z,25.98
2018-07-19T14:35:44.986Z,26.01
2018-07-19T14:39:12.283Z,27.36
2018-07-19T14:42:36.796Z,26.19
2018-07-19T14:46:01.301Z,25.51
2018-07-19T14:49:25.876Z,25.90
2018-07-19T14:52:50.389Z,24.66
2018-07-19T14:56:14.695Z,24.73
2018-07-19T14:59:39.277Z,24.24
2018-07-19T15:03:03.859Z,26.35
2018-07-19T15:06:28.360Z,25.30
2018-07-19T15:09:53.016Z,25.91
2018-07-19T15:13:17.632Z,24.53
2018-07-19T15:16:42.240Z,25.31
2018-07-19T15:20:06.794Z,23.01
2018-07-19T15:23:31.402Z,23.52
2018-07-19T15:26:55.972Z,24.72
2018-07-19T15:30:20.549Z,23.83
2018-07-19T15:33:45.120Z,24.10
2018-07-19T15:37:09.732Z,23.48
2018-07-19T15:40:34.327Z,24.71
2018-07-19T15:43:58.926Z,23.36
2018-07-19T15:47:23.466Z,24.01
2018-07-19T15:50:48.074Z,22.76
2018-07-19T15:54:12.748Z,21.91
2018-07-19T15:57:37.374Z,22.46
2018-07-19T16:01:02.026Z,22.05
2018-07-19T16:04:26.604Z,22.73
2018-07-19T16:07:51.330Z,22.61
2018-07-19T16:11:17.906Z,22.13
2018-07-19T16:14:42.697Z,22.32
2018-07-19T16:18:07.531Z,22.22
2018-07-19T16:21:32.096Z,22.37
2018-07-19T16:24:56.781Z,22.85
2018-07-19T16:28:21.302Z,21.49
2018-07-19T16:31:45.833Z,21.96
2018-07-19T16:35:10.408Z,22.56
2018-07-19T16:38:35.024Z,22.06
2018-07-19T16:41:59.610Z,24.39
2018-07-19T16:45:24.210Z,24.86
2018-07-19T16:48:50.486Z,25.44
2018-07-19T16:52:15.688Z,23.39
2018-07-19T16:55:40.102Z,23.76
2018-07-19T16:59:04.738Z,22.74
2018-07-19T17:02:29.381Z,22.28
2018-07-19T17:05:54.127Z,22.82
2018-07-19T17:09:18.829Z,22.78
2018-07-19T17:12:43.506Z,22.95
2018-07-19T17:16:08.215Z,23.79
2018-07-19T17:19:32.959Z,24.03
2018-07-19T17:22:57.648Z,23.41
2018-07-19T17:26:22.357Z,24.07
2018-07-19T17:29:47.006Z,22.87
2018-07-19T17:33:11.678Z,23.42
2018-07-19T17:36:35.982Z,25.85
2018-07-19T17:40:00.663Z,26.36
2018-07-19T17:43:25.320Z,24.36
2018-07-19T17:46:50.119Z,25.74
2018-07-19T17:50:14.775Z,24.00
2018-07-19T17:53:39.437Z,25.06
2018-07-19T17:57:04.121Z,24.76
2018-07-19T18:00:28.827Z,25.29
2018-07-19T18:03:53.630Z,26.12
2018-07-19T18:07:18.363Z,26.17
2018-07-19T18:10:43.066Z,26.87
2018-07-19T18:14:08.380Z,26.87
2018-07-19T18:17:33.062Z,26.92
2018-07-19T18:20:58.998Z,27.26
2018-07-19T18:24:23.690Z,27.97
2018-07-19T18:27:48.415Z,28.64
2018-07-19T18:31:13.870Z,28.86
2018-07-19T18:34:38.500Z,29.02
2018-07-19T18:38:03.162Z,29.01
2018-07-19T18:41:28.617Z,29.83
2018-07-19T18:44:53.416Z,29.89
2018-07-19T18:48:18.203Z,30.62
2018-07-19T18:51:41.796Z,30.51
2018-07-19T18:55:06.381Z,30.91
2018-07-19T18:58:30.698Z,31.29
2018-07-19T19:01:55.417Z,32.53
2018-07-19T19:05:20.242Z,32.74
2018-07-19T19:08:44.926Z,32.68
2018-07-19T19:12:09.578Z,35.11
2018-07-19T19:15:33.937Z,35.76
2018-07-19T19:18:58.601Z,36.18
2018-07-19T19:22:23.272Z,36.30
2018-07-19T19:25:47.760Z,36.84
2018-07-19T19:29:12.476Z,37.77
2018-07-19T19:32:37.208Z,37.82
2018-07-19T19:36:01.909Z,38.19
2018-07-19T19:39:26.757Z,38.59
2018-07-19T19:42:52.920Z,39.37
2018-07-19T19:46:17.908Z,39.60
2018-07-19T19:49:42.616Z,39.01
2018-07-19T19:53:07.304Z,40.30
2018-07-19T19:56:31.958Z,41.04
2018-07-19T19:59:56.927Z,39.87
2018-07-19T20:03:21.222Z,41.42
2018-07-19T20:06:45.952Z,41.72
2018-07-19T20:10:11.690Z,40.92
2018-07-19T20:13:36.350Z,39.91
2018-07-19T20:17:01.064Z,39.59
2018-07-19T20:20:25.700Z,40.29
2018-07-19T20:23:50.340Z,40.54
2018-07-19T20:27:14.977Z,41.54
2018-07-19T20:30:39.673Z,41.92
2018-07-19T20:34:04.440Z,40.93
2018-07-19T20:37:29.180Z,43.33
2018-07-19T20:40:53.893Z,43.05
2018-07-19T20:44:18.556Z,41.99
2018-07-19T20:47:43.237Z,41.47
2018-07-19T20:51:07.621Z,42.25
2018-07-19T20:54:32.241Z,42.27
2018-07-19T20:57:56.516Z,41.69
2018-07-19T21:01:21.180Z,42.54
2018-07-19T21:04:45.847Z,43.47
2018-07-19T21:08:10.563Z,43.41
2018-07-19T21:11:35.188Z,43.87
2018-07-19T21:14:59.865Z,45.29
2018-07-19T21:18:24.250Z,43.74
2018-07-19T21:21:48.918Z,45.14
2018-07-19T21:25:13.598Z,44.63
2018-07-19T21:28:38.246Z,45.06
2018-07-19T21:32:03.064Z,46.09
2018-07-19T21:35:27.750Z,46.48
2018-07-19T21:38:52.060Z,45.37
2018-07-19T21:42:16.696Z,46.20
2018-07-19T21:45:41.384Z,46.20
2018-07-19T21:49:06.766Z,45.86
2018-07-19T21:52:31.445Z,45.98
2018-07-19T21:55:55.892Z,46.75
2018-07-19T21:59:20.666Z,46.76
2018-07-19T22:02:45.452Z,47.13
2018-07-19T22:06:10.450Z,47.34
2018-07-19T22:09:35.168Z,47.39
2018-07-19T22:13:00.211Z,47.01
2018-07-19T22:16:25.867Z,47.65
2018-07-19T22:19:50.566Z,46.97
2018-07-19T22:23:15.621Z,46.37
2018-07-19T22:26:40.548Z,47.25
2018-07-19T22:30:05.386Z,47.36
2018-07-19T22:33:30.145Z,46.81
2018-07-19T22:36:54.836Z,47.19
2018-07-19T22:40:19.481Z,46.53
2018-07-19T22:43:44.209Z,46.02
2018-07-19T22:47:08.597Z,47.30
2018-07-19T22:50:32.959Z,46.58
2018-07-19T22:53:57.662Z,48.52
2018-07-19T22:57:24.188Z,47.64
2018-07-19T23:00:48.955Z,46.84
2018-07-19T23:04:13.739Z,47.11
2018-07-19T23:07:38.803Z,47.59
2018-07-19T23:11:03.616Z,47.68
2018-07-19T23:14:28.300Z,47.49
2018-07-19T23:17:54.150Z,47.60
2018-07-19T23:21:18.518Z,48.32
2018-07-19T23:24:42.888Z,48.32
2018-07-19T23:28:07.766Z,48.71
2018-07-19T23:31:32.549Z,49.53
2018-07-19T23:34:57.396Z,49.19
2018-07-19T23:38:27.204Z,50.51
2018-07-19T23:42:28.810Z,50.14
2018-07-19T23:45:58.816Z,50.65
2018-07-19T23:49:23.126Z,50.32
2018-07-19T23:52:47.478Z,49.95
2018-07-19T23:56:12.239Z,50.14
2018-07-19T23:59:37.744Z,49.82
